Time;durP1;ratioP1;P1;durP2;ratioP2;P2;SDS_P1;SDS_P2;PMS_P1;PMS_P2;Temp;Humidity;BMP_temperature;BMP_pressure;BME280_temperature;BME280_humidity;BME280_pressure;Samples;Min_cycle;Max_cycle;Signal;HPM_P1;HPM_P2
2021/12/24 00:02:15;;;;;;;9.70;6.90;;;12.20;99.90;;;;;;4975151;28;20204;-75
2021/12/24 00:04:40;;;;;;;9.10;6.83;;;12.20;99.90;;;;;;4975005;28;20233;-76
2021/12/24 00:07:06;;;;;;;9.53;7.47;;;12.20;99.90;;;;;;4974488;28;20182;-75
2021/12/24 00:13:41;;;;;;;7.60;6.43;;;12.10;99.90;;;;;;4961291;28;20267;-76
2021/12/24 00:16:17;;;;;;;9.20;7.05;;;12.10;99.90;;;;;;4989112;28;20172;-76
2021/12/24 00:18:49;;;;;;;9.02;7.32;;;12.10;99.90;;;;;;4975210;28;20314;-76
2021/12/24 00:37:25;;;;;;;8.73;7.03;;;12.00;99.90;;;;;;4972633;28;20187;-76
2021/12/24 00:40:09;;;;;;;7.80;7.00;;;12.00;99.90;;;;;;4974574;28;20198;-76
2021/12/24 00:42:35;;;;;;;9.00;6.30;;;12.00;99.90;;;;;;4989367;28;20180;-76
2021/12/24 00:45:02;;;;;;;6.77;5.67;;;12.00;99.90;;;;;;4973085;28;20160;-76
2021/12/24 00:47:28;;;;;;;6.90;6.07;;;12.00;99.90;;;;;;4974140;28;20582;-76
2021/12/24 00:49:55;;;;;;;8.75;6.68;;;12.00;99.90;;;;;;4974241;28;20178;-76
2021/12/24 00:55:06;;;;;;;7.88;5.85;;;12.00;99.90;;;;;;4972790;28;20175;-76
2021/12/24 00:57:41;;;;;;;9.00;6.45;;;12.00;99.90;;;;;;4972677;28;20168;-76
2021/12/24 01:00:17;;;;;;;6.97;5.95;;;11.90;99.90;;;;;;4973910;28;20534;-76
2021/12/24 01:02:43;;;;;;;7.40;6.28;;;12.00;99.90;;;;;;4974010;28;20571;-76
2021/12/24 01:05:10;;;;;;;6.68;6.07;;;11.90;99.90;;;;;;4973948;28;20227;-76
2021/12/24 01:07:38;;;;;;;6.28;5.50;;;12.00;99.90;;;;;;4988823;28;20203;-76
2021/12/24 01:10:07;;;;;;;6.88;5.78;;;11.90;99.90;;;;;;4972740;28;20167;-76
2021/12/24 01:12:34;;;;;;;6.10;5.35;;;11.90;99.90;;;;;;4972516;28;20214;-76
2021/12/24 01:15:00;;;;;;;5.38;4.88;;;11.90;99.90;;;;;;4972623;28;20238;-76
2021/12/24 01:19:57;;;;;;;7.70;6.40;;;11.90;99.90;;;;;;4972505;28;20171;-76
2021/12/24 01:25:43;;;;;;;7.03;5.30;;;11.90;99.90;;;;;;4973832;28;20655;-76
2021/12/24 01:38:19;;;;;;;7.53;5.75;;;11.80;99.90;;;;;;4973288;28;20174;-76
2021/12/24 01:43:24;;;;;;;6.68;5.72;;;11.80;99.90;;;;;;4971777;28;20190;-76
2021/12/24 01:45:54;;;;;;;6.68;4.90;;;11.80;99.90;;;;;;4971738;28;20179;-76
2021/12/24 01:48:20;;;;;;;5.75;5.20;;;11.80;99.90;;;;;;4972023;28;20176;-76
2021/12/24 01:50:47;;;;;;;5.53;4.82;;;11.80;99.90;;;;;;4973070;28;20227;-76
2021/12/24 01:53:16;;;;;;;5.68;4.97;;;11.80;99.90;;;;;;4971915;28;20204;-76
2021/12/24 01:55:47;;;;;;;5.32;4.82;;;11.80;99.90;;;;;;4971473;28;20187;-76
2021/12/24 01:58:21;;;;;;;6.80;5.38;;;11.80;99.90;;;;;;4988302;28;20708;-76
2021/12/24 02:00:50;;;;;;;6.18;5.00;;;11.80;99.90;;;;;;4987883;28;20226;-76
2021/12/24 02:03:16;;;;;;;5.55;4.63;;;11.80;99.90;;;;;;4987943;28;20683;-76
2021/12/24 02:05:44;;;;;;;5.40;4.90;;;11.80;99.90;;;;;;4987021;28;20168;-76
2021/12/24 02:08:10;;;;;;;5.38;4.70;;;11.80;99.90;;;;;;4973500;28;20171;-76
2021/12/24 02:10:37;;;;;;;6.65;4.88;;;11.80;99.90;;;;;;4972360;28;20287;-76
2021/12/24 02:13:03;;;;;;;4.70;4.20;;;11.90;99.90;;;;;;4971637;28;20542;-76
2021/12/24 02:29:05;;;;;;;4.75;4.28;;;11.90;99.90;;;;;;4971695;28;20194;-76
2021/12/24 02:31:31;;;;;;;4.60;4.20;;;11.90;99.90;;;;;;4987959;28;20205;-76
2021/12/24 02:33:58;;;;;;;7.15;4.68;;;11.90;99.90;;;;;;4954576;28;20215;-76
2021/12/24 02:36:24;;;;;;;5.97;4.70;;;11.90;99.90;;;;;;4970816;28;20203;-76
2021/12/24 02:38:50;;;;;;;4.90;4.40;;;11.90;99.90;;;;;;4972750;28;20563;-76
2021/12/24 02:41:17;;;;;;;6.18;4.70;;;11.90;99.90;;;;;;4972518;28;21048;-76
2021/12/24 02:43:43;;;;;;;5.53;4.93;;;11.90;99.90;;;;;;4972296;28;20698;-76
2021/12/24 02:46:13;;;;;;;7.10;6.40;;;11.90;99.90;;;;;;4971085;28;20255;-76
2021/12/24 02:54:13;;;;;;;4.95;4.30;;;12.00;99.90;;;;;;4972138;28;20310;-76
2021/12/24 02:56:47;;;;;;;7.70;5.28;;;12.00;99.90;;;;;;4972294;28;20622;-76
2021/12/24 02:59:15;;;;;;;5.93;4.53;;;12.00;99.90;;;;;;4971228;28;20187;-76
2021/12/24 03:01:43;;;;;;;6.82;4.55;;;12.00;99.90;;;;;;4972286;28;20222;-76
2021/12/24 03:04:10;;;;;;;7.05;5.28;;;12.00;99.90;;;;;;4986888;28;20531;-76
2021/12/24 03:06:39;;;;;;;5.85;5.15;;;12.00;99.90;;;;;;4972068;28;20251;-76
2021/12/24 03:09:12;;;;;;;6.47;5.30;;;12.00;99.90;;;;;;4987550;28;20669;-76
2021/12/24 03:11:38;;;;;;;9.68;5.20;;;12.00;99.90;;;;;;4987427;28;20567;-76
2021/12/24 03:14:05;;;;;;;8.77;5.30;;;12.00;99.90;;;;;;4972129;28;20222;-76
2021/12/24 03:16:31;;;;;;;5.65;4.97;;;12.00;99.90;;;;;;4971622;28;20180;-76
2021/12/24 03:18:57;;;;;;;7.50;5.60;;;12.00;99.90;;;;;;4971365;28;20215;-76
2021/12/24 03:21:30;;;;;;;6.20;5.60;;;12.00;99.90;;;;;;4970604;28;20200;-76
2021/12/24 03:26:27;;;;;;;7.70;5.95;;;12.00;99.90;;;;;;4990455;28;20200;-76
2021/12/24 03:28:55;;;;;;;6.88;5.28;;;12.00;99.90;;;;;;4975349;28;20190;-75
2021/12/24 03:31:21;;;;;;;5.50;4.85;;;12.00;99.90;;;;;;4974431;28;20198;-75
2021/12/24 03:33:48;;;;;;;5.75;4.65;;;12.00;99.90;;;;;;4975863;28;20178;-75
2021/12/24 03:36:14;;;;;;;5.65;5.05;;;12.00;99.90;;;;;;4990939;28;20179;-74
2021/12/24 03:38:41;;;;;;;6.20;5.50;;;12.00;99.90;;;;;;4974516;28;20172;-75
2021/12/24 03:41:07;;;;;;;9.30;6.80;;;12.00;99.90;;;;;;4975753;28;20294;-75
2021/12/24 03:43:33;;;;;;;6.57;5.50;;;12.00;99.90;;;;;;4974318;28;20263;-75
2021/12/24 03:46:04;;;;;;;7.18;5.60;;;12.00;99.90;;;;;;4974373;28;20575;-75
2021/12/24 03:48:52;;;;;;;8.27;5.50;;;12.00;99.90;;;;;;4974490;28;20179;-75
2021/12/24 03:51:28;;;;;;;6.72;5.93;;;12.00;99.90;;;;;;4974484;28;20195;-75
2021/12/24 03:56:42;;;;;;;6.28;5.60;;;12.00;99.90;;;;;;4974372;28;20179;-75
2021/12/24 03:59:19;;;;;;;7.40;5.50;;;11.90;99.90;;;;;;4974107;28;20171;-75
2021/12/24 04:01:45;;;;;;;6.05;4.88;;;11.90;99.90;;;;;;4975157;28;20207;-75
2021/12/24 04:04:31;;;;;;;7.28;5.15;;;11.90;99.90;;;;;;4975030;28;20238;-75
2021/12/24 04:07:16;;;;;;;6.55;4.85;;;11.90;99.90;;;;;;4975261;28;20202;-75
2021/12/24 04:10:06;;;;;;;7.22;5.45;;;11.90;99.90;;;;;;4988698;28;20186;-75
2021/12/24 04:12:55;;;;;;;7.15;5.28;;;11.90;99.90;;;;;;4975010;28;20190;-75
2021/12/24 04:15:21;;;;;;;6.50;5.40;;;11.90;99.90;;;;;;4973842;28;20530;-74
2021/12/24 04:17:48;;;;;;;8.60;5.33;;;11.90;99.90;;;;;;4974085;28;20258;-75
2021/12/24 04:25:42;;;;;;;7.88;4.88;;;11.90;99.90;;;;;;4974920;28;20222;-75
2021/12/24 04:28:08;;;;;;;9.23;5.47;;;11.90;99.90;;;;;;4973913;28;20160;-75
2021/12/24 04:30:40;;;;;;;7.33;5.73;;;11.90;99.90;;;;;;4973687;28;20603;-75
2021/12/24 04:33:31;;;;;;;6.75;5.18;;;11.90;99.90;;;;;;4973308;28;20258;-75
2021/12/24 04:36:00;;;;;;;11.15;5.40;;;11.90;99.90;;;;;;4974773;28;20191;-75
2021/12/24 04:38:36;;;;;;;8.23;4.95;;;11.90;99.90;;;;;;4957083;28;20192;-74
2021/12/24 04:52:09;;;;;;;9.02;7.30;;;12.00;99.90;;;;;;4974386;28;20426;-74
2021/12/24 05:03:07;;;;;;;7.75;5.68;;;12.10;99.90;;;;;;4974854;28;20205;-75
2021/12/24 05:05:51;;;;;;;7.93;5.75;;;12.10;99.90;;;;;;4974337;28;20172;-74
2021/12/24 05:08:26;;;;;;;7.28;6.55;;;12.10;99.90;;;;;;4990649;28;20202;-74
2021/12/24 05:10:53;;;;;;;10.95;6.60;;;12.10;99.90;;;;;;4990487;28;20286;-74
2021/12/24 05:13:22;;;;;;;6.57;5.75;;;12.10;99.90;;;;;;4990093;28;20214;-74
2021/12/24 05:16:05;;;;;;;8.00;6.07;;;12.10;99.90;;;;;;4974728;28;20184;-74
2021/12/24 05:21:51;;;;;;;9.90;7.18;;;12.10;99.90;;;;;;4963383;28;20222;-74
2021/12/24 05:24:19;;;;;;;6.63;5.63;;;12.10;99.90;;;;;;4972986;28;20179;-74
2021/12/24 05:26:55;;;;;;;10.75;6.65;;;12.20;99.90;;;;;;4988782;28;20255;-74
2021/12/24 05:29:21;;;;;;;9.60;5.15;;;12.20;99.90;;;;;;4972873;28;20198;-74
2021/12/24 05:31:49;;;;;;;7.25;5.80;;;12.20;99.90;;;;;;4972404;28;20538;-74
2021/12/24 05:34:17;;;;;;;9.82;6.35;;;12.20;99.90;;;;;;4972631;28;20172;-75
2021/12/24 05:36:49;;;;;;;10.18;6.43;;;12.20;99.90;;;;;;4988392;28;20566;-75
2021/12/24 05:39:17;;;;;;;8.18;6.25;;;12.20;99.90;;;;;;4973051;28;20179;-74
2021/12/24 05:41:45;;;;;;;7.80;6.57;;;12.20;99.90;;;;;;4973781;28;20195;-74
2021/12/24 05:44:15;;;;;;;12.77;6.38;;;12.20;99.90;;;;;;4989172;28;20258;-74
2021/12/24 05:46:41;;;;;;;9.07;6.10;;;12.20;99.90;;;;;;4973440;28;20175;-73
2021/12/24 05:49:30;;;;;;;9.38;5.60;;;12.30;99.90;;;;;;4966423;28;20258;-75
2021/12/24 05:52:19;;;;;;;8.45;5.55;;;12.30;99.90;;;;;;4946333;28;20617;-74
2021/12/24 05:54:54;;;;;;;8.23;6.03;;;12.30;99.90;;;;;;4988554;28;20179;-75
2021/12/24 05:57:20;;;;;;;9.68;5.75;;;12.30;99.90;;;;;;4972528;28;20230;-74
2021/12/24 05:59:46;;;;;;;8.95;6.78;;;12.30;99.90;;;;;;4973512;28;20272;-74
2021/12/24 06:02:12;;;;;;;12.65;7.03;;;12.30;99.90;;;;;;4988396;28;20272;-74
2021/12/24 06:04:38;;;;;;;7.93;6.20;;;12.30;99.90;;;;;;4973288;28;20168;-75
2021/12/24 06:07:04;;;;;;;15.20;6.40;;;12.30;99.90;;;;;;4973316;28;20175;-75
2021/12/24 06:09:29;;;;;;;9.30;6.17;;;12.30;99.90;;;;;;4973144;28;20665;-74
2021/12/24 06:11:55;;;;;;;10.93;6.07;;;12.30;99.90;;;;;;4971882;28;20700;-74
2021/12/24 06:14:21;;;;;;;7.37;6.23;;;12.30;99.90;;;;;;4973260;28;20171;-75
2021/12/24 06:17:01;;;;;;;10.00;6.87;;;12.30;99.90;;;;;;4987946;28;20246;-74
2021/12/24 06:19:28;;;;;;;9.15;6.03;;;12.30;99.90;;;;;;4973186;28;20318;-75
2021/12/24 06:21:55;;;;;;;11.13;6.50;;;12.30;99.90;;;;;;4972845;28;20305;-75
2021/12/24 06:24:21;;;;;;;13.65;6.72;;;12.30;99.90;;;;;;4987822;28;20533;-75
2021/12/24 06:26:48;;;;;;;9.00;6.30;;;12.30;99.90;;;;;;4972625;28;20168;-74
2021/12/24 06:29:13;;;;;;;8.38;6.30;;;12.30;99.90;;;;;;4987837;28;20911;-74
2021/12/24 06:31:39;;;;;;;9.97;6.50;;;12.30;99.90;;;;;;4972545;28;20202;-74
2021/12/24 06:34:06;;;;;;;9.53;6.07;;;12.30;99.90;;;;;;4972780;28;20273;-74
2021/12/24 06:36:36;;;;;;;10.13;5.53;;;12.30;99.90;;;;;;4971259;28;20183;-74
2021/12/24 06:39:04;;;;;;;8.00;5.78;;;12.30;99.90;;;;;;4972757;28;20203;-75
2021/12/24 06:41:31;;;;;;;8.35;5.65;;;12.30;99.90;;;;;;4971361;28;20283;-74
2021/12/24 06:43:57;;;;;;;10.30;6.75;;;12.30;99.90;;;;;;4972691;28;20168;-75
2021/12/24 06:46:22;;;;;;;9.10;5.95;;;12.30;99.90;;;;;;4972702;28;20171;-75
2021/12/24 06:48:53;;;;;;;7.13;6.43;;;12.30;99.90;;;;;;4963935;28;20261;-74
2021/12/24 06:51:20;;;;;;;7.95;5.32;;;12.30;99.90;;;;;;4954582;28;21042;-75
2021/12/24 06:53:46;;;;;;;7.75;6.55;;;12.30;99.90;;;;;;4962273;28;20184;-74
2021/12/24 06:56:12;;;;;;;7.90;5.95;;;12.30;99.90;;;;;;4972617;28;20175;-75
2021/12/24 06:58:42;;;;;;;8.15;5.93;;;12.30;99.90;;;;;;4959298;28;20171;-74
2021/12/24 07:01:07;;;;;;;10.27;6.77;;;12.30;99.90;;;;;;4975290;28;20750;-74
2021/12/24 07:03:34;;;;;;;8.50;5.33;;;12.30;99.90;;;;;;4974866;28;20179;-75
2021/12/24 07:05:59;;;;;;;11.65;6.43;;;12.30;99.90;;;;;;4976202;28;20571;-74
2021/12/24 07:08:26;;;;;;;9.17;6.13;;;12.30;99.90;;;;;;4976040;28;20599;-75
2021/12/24 07:10:52;;;;;;;7.30;5.50;;;12.30;99.90;;;;;;4976405;28;20191;-74
2021/12/24 07:13:18;;;;;;;10.35;6.55;;;12.30;99.90;;;;;;4976233;28;20258;-74
2021/12/24 07:15:44;;;;;;;6.93;5.03;;;12.30;99.90;;;;;;4975769;28;20200;-75
2021/12/24 07:18:10;;;;;;;9.47;5.97;;;12.40;99.90;;;;;;4977516;28;20202;-73
2021/12/24 07:20:37;;;;;;;6.90;5.70;;;12.40;99.90;;;;;;4975615;28;20678;-74
2021/12/24 07:23:04;;;;;;;8.00;5.25;;;12.40;99.90;;;;;;4975759;28;20206;-74
2021/12/24 07:25:30;;;;;;;12.18;5.55;;;12.40;99.90;;;;;;4975565;28;20160;-74
2021/12/24 07:27:56;;;;;;;8.52;5.18;;;12.40;99.90;;;;;;4976148;28;20168;-74
2021/12/24 07:30:22;;;;;;;10.15;5.60;;;12.40;99.90;;;;;;4975863;28;20187;-74
2021/12/24 07:32:48;;;;;;;7.70;5.90;;;12.40;99.90;;;;;;4974595;28;20171;-74
2021/12/24 07:35:16;;;;;;;10.18;5.63;;;12.40;99.90;;;;;;4973845;28;20248;-74
2021/12/24 07:37:43;;;;;;;9.13;5.85;;;12.40;99.90;;;;;;4974838;28;20163;-74
2021/12/24 07:40:12;;;;;;;7.93;4.57;;;12.40;99.90;;;;;;4975600;28;20176;-74
2021/12/24 07:42:38;;;;;;;11.90;5.72;;;12.40;99.90;;;;;;4976057;28;20167;-74
2021/12/24 07:45:05;;;;;;;10.60;6.15;;;12.40;99.90;;;;;;4975836;28;20168;-74
2021/12/24 07:47:36;;;;;;;9.65;5.90;;;12.40;99.90;;;;;;4975494;28;20167;-74
2021/12/24 07:50:16;;;;;;;11.27;6.45;;;12.40;99.90;;;;;;4960785;28;20690;-74
2021/12/24 07:52:43;;;;;;;6.97;5.68;;;12.40;99.90;;;;;;4975377;28;20509;-74
2021/12/24 07:55:10;;;;;;;7.25;5.07;;;12.30;99.90;;;;;;4975868;28;20546;-74
2021/12/24 07:57:38;;;;;;;9.63;5.95;;;12.30;99.90;;;;;;4974350;28;20175;-74
2021/12/24 08:00:07;;;;;;;10.48;6.40;;;12.30;99.90;;;;;;4974296;28;20172;-74
2021/12/24 08:02:41;;;;;;;8.55;6.20;;;12.30;99.90;;;;;;4975654;28;20183;-75
2021/12/24 08:05:07;;;;;;;13.48;6.75;;;12.30;99.90;;;;;;4975219;28;20588;-74
2021/12/24 08:07:33;;;;;;;9.00;5.40;;;12.30;99.90;;;;;;4989350;28;20172;-76
2021/12/24 08:09:58;;;;;;;9.73;6.30;;;12.30;99.90;;;;;;4975528;28;20541;-76
2021/12/24 08:12:24;;;;;;;11.90;6.33;;;12.30;99.90;;;;;;4990016;28;20195;-76
2021/12/24 08:14:50;;;;;;;10.20;6.40;;;12.30;99.90;;;;;;4975189;28;20699;-76
2021/12/24 08:17:16;;;;;;;8.37;5.60;;;12.30;99.90;;;;;;4974854;28;20641;-76
2021/12/24 08:19:41;;;;;;;8.90;5.90;;;12.30;99.90;;;;;;4974913;28;20610;-77
2021/12/24 08:22:08;;;;;;;8.63;5.90;;;12.30;99.90;;;;;;4974851;28;20630;-76
2021/12/24 08:24:33;;;;;;;8.30;5.97;;;12.30;99.90;;;;;;4974599;28;20575;-76
2021/12/24 08:26:59;;;;;;;11.03;6.63;;;12.30;99.90;;;;;;4973428;28;20231;-74
2021/12/24 08:29:25;;;;;;;9.07;5.50;;;12.30;99.90;;;;;;4974630;28;20170;-75
2021/12/24 08:31:51;;;;;;;6.63;5.00;;;12.30;99.90;;;;;;4975108;28;20216;-74
2021/12/24 08:35:09;;;;;;;8.88;5.15;;;12.30;99.90;;;;;;4974956;28;20585;-73
2021/12/24 08:37:34;;;;;;;8.57;4.90;;;12.30;99.90;;;;;;4937650;28;20269;-78
2021/12/24 08:40:01;;;;;;;8.87;4.90;;;12.40;99.90;;;;;;4974371;28;20223;-78
2021/12/24 08:42:27;;;;;;;12.02;5.72;;;12.40;99.90;;;;;;4974625;28;20290;-78
2021/12/24 08:44:52;;;;;;;7.07;5.27;;;12.40;99.90;;;;;;4974642;28;20310;-78
2021/12/24 08:47:18;;;;;;;8.87;5.70;;;12.40;99.90;;;;;;4973949;28;20277;-78
2021/12/24 08:49:44;;;;;;;9.97;5.73;;;12.40;99.90;;;;;;4967615;28;20225;-77
2021/12/24 08:52:10;;;;;;;11.57;5.33;;;12.40;99.90;;;;;;4955377;29;20615;-77
2021/12/24 08:54:36;;;;;;;8.70;4.50;;;12.40;99.90;;;;;;4954699;28;20603;-78
2021/12/24 08:57:02;;;;;;;12.20;5.57;;;12.40;99.90;;;;;;4954465;28;20589;-78
2021/12/24 08:59:28;;;;;;;13.73;5.15;;;12.40;99.90;;;;;;4955136;28;20169;-78
2021/12/24 09:01:54;;;;;;;6.87;5.40;;;12.50;99.90;;;;;;4954699;28;20210;-78
2021/12/24 09:04:21;;;;;;;7.87;5.10;;;12.50;99.90;;;;;;4953290;29;20176;-78
2021/12/24 09:06:46;;;;;;;9.45;4.90;;;12.50;99.90;;;;;;4954208;28;20592;-78
2021/12/24 09:09:12;;;;;;;9.47;5.00;;;12.50;99.90;;;;;;4955025;29;20237;-78
2021/12/24 09:11:40;;;;;;;8.60;4.70;;;12.60;99.90;;;;;;4954663;29;20607;-78
2021/12/24 09:14:07;;;;;;;10.57;5.28;;;12.60;99.90;;;;;;4953877;28;20732;-78
2021/12/24 09:16:33;;;;;;;10.48;4.68;;;12.60;99.90;;;;;;4953910;28;20177;-78
2021/12/24 09:19:06;;;;;;;9.52;5.03;;;12.70;99.90;;;;;;4954472;28;20231;-80
2021/12/24 09:21:33;;;;;;;8.52;4.32;;;12.70;99.90;;;;;;4968656;28;20223;-77
2021/12/24 09:24:01;;;;;;;9.80;5.03;;;12.70;99.90;;;;;;4954435;29;20176;-77
2021/12/24 09:26:29;;;;;;;8.50;6.22;;;12.80;99.90;;;;;;4954568;28;20160;-77
2021/12/24 09:28:56;;;;;;;5.43;4.53;;;12.80;99.90;;;;;;4955361;28;20164;-78
2021/12/24 09:31:23;;;;;;;7.32;4.45;;;12.90;99.90;;;;;;4953116;29;20228;-78
2021/12/24 09:33:49;;;;;;;12.88;5.22;;;13.00;99.90;;;;;;4953935;29;20172;-77
2021/12/24 09:36:20;;;;;;;10.30;5.87;;;13.00;99.90;;;;;;4953956;28;20631;-76
2021/12/24 09:38:46;;;;;;;11.32;6.50;;;13.10;99.90;;;;;;4954703;29;20582;-76
2021/12/24 09:41:11;;;;;;;8.97;5.63;;;13.10;99.90;;;;;;4954455;29;20201;-76
2021/12/24 09:43:37;;;;;;;10.07;6.90;;;13.20;99.90;;;;;;4954906;29;20226;-76
2021/12/24 09:46:03;;;;;;;13.13;6.10;;;13.20;99.90;;;;;;4952609;29;20596;-76
2021/12/24 09:48:28;;;;;;;10.90;6.43;;;13.30;99.90;;;;;;4953934;29;20175;-77
2021/12/24 09:50:54;;;;;;;9.70;4.57;;;13.30;99.90;;;;;;4954246;29;20184;-77
2021/12/24 09:53:20;;;;;;;9.57;6.13;;;13.40;99.90;;;;;;4953928;29;20199;-78
2021/12/24 09:55:47;;;;;;;12.38;5.68;;;13.40;99.90;;;;;;4954147;29;20176;-76
2021/12/24 09:58:13;;;;;;;8.05;5.65;;;13.50;99.90;;;;;;4953938;28;20181;-78
2021/12/24 10:00:40;;;;;;;11.20;5.20;;;13.50;99.90;;;;;;4953541;29;20259;-78
2021/12/24 10:03:06;;;;;;;8.95;5.57;;;13.50;99.90;;;;;;4953849;28;20219;-78
2021/12/24 10:05:34;;;;;;;9.82;4.68;;;13.50;99.90;;;;;;4953782;28;20268;-77
2021/12/24 10:08:04;;;;;;;8.70;4.70;;;13.50;99.90;;;;;;4953992;29;20692;-77
2021/12/24 10:10:31;;;;;;;12.13;5.37;;;13.50;99.90;;;;;;4953786;29;20599;-77
2021/12/24 10:13:29;;;;;;;8.13;4.78;;;13.50;99.90;;;;;;4954237;28;20591;-77
2021/12/24 10:15:55;;;;;;;9.50;4.63;;;13.50;99.90;;;;;;4956404;29;20172;-77
2021/12/24 10:18:38;;;;;;;10.00;5.00;;;13.50;99.90;;;;;;4953925;29;20580;-78
2021/12/24 10:21:17;;;;;;;12.68;5.85;;;13.50;99.90;;;;;;4953372;29;20227;-78
2021/12/24 10:23:46;;;;;;;7.07;4.85;;;13.50;99.90;;;;;;4953058;28;20227;-78
2021/12/24 10:26:15;;;;;;;13.15;5.30;;;13.50;99.90;;;;;;4971769;28;20255;-79
2021/12/24 10:29:02;;;;;;;9.63;6.93;;;13.50;99.90;;;;;;4970302;28;20183;-78
2021/12/24 10:31:32;;;;;;;10.13;4.97;;;13.60;99.90;;;;;;4968897;28;20211;-75
2021/12/24 10:34:08;;;;;;;12.32;4.53;;;13.70;99.90;;;;;;4972219;28;21144;-76
2021/12/24 10:36:58;;;;;;;11.20;5.30;;;13.80;99.90;;;;;;4970464;28;20182;-76
2021/12/24 10:39:29;;;;;;;9.83;4.30;;;13.80;99.90;;;;;;4955650;28;21238;-77
2021/12/24 10:41:57;;;;;;;11.37;5.13;;;13.90;99.90;;;;;;4972075;28;20650;-77
2021/12/24 10:44:36;;;;;;;14.13;5.60;;;14.00;99.90;;;;;;4970874;28;20969;-77
2021/12/24 10:47:26;;;;;;;8.10;4.90;;;14.10;99.90;;;;;;4972233;28;20575;-76
2021/12/24 10:50:48;;;;;;;7.33;4.57;;;14.10;99.90;;;;;;4972460;28;20570;-76
2021/12/24 10:55:33;;;;;;;10.33;4.27;;;14.30;99.90;;;;;;4972019;28;20624;-76
2021/12/24 10:57:59;;;;;;;7.53;4.40;;;14.30;99.90;;;;;;4971119;28;20587;-76
2021/12/24 11:00:49;;;;;;;10.73;5.07;;;14.40;99.90;;;;;;4971679;28;20994;-76
2021/12/24 11:03:22;;;;;;;8.75;4.63;;;14.40;99.90;;;;;;4972421;28;20571;-77
2021/12/24 11:06:02;;;;;;;10.10;4.10;;;14.40;99.90;;;;;;4970363;28;20171;-76
2021/12/24 11:08:29;;;;;;;6.30;4.03;;;14.40;99.90;;;;;;4971355;28;20575;-77
2021/12/24 11:10:57;;;;;;;10.97;4.30;;;14.40;99.90;;;;;;4954710;28;20614;-77
2021/12/24 11:13:32;;;;;;;13.57;5.03;;;14.30;99.90;;;;;;4971879;28;21123;-77
2021/12/24 11:16:08;;;;;;;11.17;5.50;;;14.20;99.90;;;;;;4986559;28;20944;-76
2021/12/24 11:19:02;;;;;;;10.63;4.73;;;14.20;99.90;;;;;;4958102;28;20660;-74
2021/12/24 11:21:30;;;;;;;8.37;4.97;;;14.20;99.90;;;;;;4970514;28;20726;-73
2021/12/24 11:23:59;;;;;;;5.28;3.90;;;14.10;99.90;;;;;;4972048;28;20674;-73
2021/12/24 11:26:32;;;;;;;6.40;3.70;;;14.10;99.90;;;;;;4970057;28;20593;-73
2021/12/24 11:28:58;;;;;;;7.37;4.00;;;14.10;99.90;;;;;;4971796;28;20942;-73
2021/12/24 11:31:27;;;;;;;8.20;4.63;;;14.10;99.90;;;;;;4986502;28;20603;-73
2021/12/24 11:33:54;;;;;;;10.27;3.45;;;14.10;99.90;;;;;;4972233;28;20585;-73
2021/12/24 11:36:23;;;;;;;7.80;3.53;;;14.10;99.90;;;;;;4971520;28;20172;-73
2021/12/24 11:38:54;;;;;;;8.03;3.90;;;14.10;99.90;;;;;;4987158;28;20578;-73
2021/12/24 11:41:25;;;;;;;8.80;4.40;;;14.10;99.90;;;;;;4969728;28;20991;-73
2021/12/24 11:43:52;;;;;;;11.40;4.00;;;14.00;99.90;;;;;;4956384;28;20579;-73
2021/12/24 11:46:20;;;;;;;7.27;3.77;;;14.00;99.90;;;;;;4974095;28;20586;-73
2021/12/24 11:48:48;;;;;;;5.22;3.60;;;14.00;99.90;;;;;;4990409;28;20632;-73
2021/12/24 11:51:26;;;;;;;8.47;4.17;;;14.00;99.90;;;;;;4975227;28;20219;-73
2021/12/24 11:53:57;;;;;;;10.70;4.70;;;14.00;99.90;;;;;;4975175;28;20562;-73
2021/12/24 11:56:24;;;;;;;10.10;5.13;;;14.00;99.90;;;;;;4989944;28;20666;-73
2021/12/24 11:58:53;;;;;;;11.53;5.33;;;14.00;99.90;;;;;;4990028;28;20949;-73
2021/12/24 12:01:21;;;;;;;11.35;5.82;;;14.10;99.90;;;;;;4989899;28;20996;-73
2021/12/24 12:03:51;;;;;;;14.90;6.07;;;14.10;99.90;;;;;;4990161;28;20172;-73
2021/12/24 12:06:17;;;;;;;11.37;5.97;;;14.10;99.90;;;;;;4975086;28;20570;-73
2021/12/24 12:08:44;;;;;;;8.80;4.77;;;14.10;99.90;;;;;;4989791;28;20626;-73
2021/12/24 12:11:13;;;;;;;10.40;3.70;;;14.20;99.90;;;;;;4973491;28;20203;-73
2021/12/24 12:13:44;;;;;;;11.73;3.43;;;14.20;99.90;;;;;;4973574;28;20597;-73
2021/12/24 12:16:20;;;;;;;6.93;2.77;;;14.20;99.90;;;;;;4989296;28;20578;-73
2021/12/24 12:19:00;;;;;;;11.00;3.50;;;14.20;99.90;;;;;;4989628;28;20574;-73
2021/12/24 12:21:40;;;;;;;9.30;3.27;;;14.30;99.90;;;;;;4974346;28;20649;-73
2021/12/24 12:26:46;;;;;;;6.80;3.70;;;14.40;99.90;;;;;;4974106;28;20575;-73
2021/12/24 12:29:34;;;;;;;7.77;2.90;;;14.30;99.90;;;;;;4989780;28;20945;-72
2021/12/24 12:32:16;;;;;;;10.30;3.33;;;14.30;99.90;;;;;;4974159;28;20661;-72
2021/12/24 12:34:45;;;;;;;10.87;3.47;;;14.30;99.90;;;;;;4974560;28;20603;-72
2021/12/24 12:37:17;;;;;;;10.13;3.33;;;14.30;99.90;;;;;;4974190;28;20599;-72
2021/12/24 12:39:46;;;;;;;11.07;4.07;;;14.30;99.90;;;;;;4973375;28;20618;-73
2021/12/24 12:42:17;;;;;;;8.03;3.23;;;14.30;99.90;;;;;;4974001;28;20642;-72
2021/12/24 12:44:51;;;;;;;14.03;4.53;;;14.30;99.90;;;;;;4974492;28;20603;-73
2021/12/24 12:47:23;;;;;;;9.63;4.13;;;14.30;99.90;;;;;;4956612;28;20575;-72
2021/12/24 12:50:10;;;;;;;11.90;3.73;;;14.30;99.90;;;;;;4973301;28;20630;-73
2021/12/24 12:52:36;;;;;;;6.43;4.17;;;14.30;99.90;;;;;;4974001;28;20571;-73
2021/12/24 12:55:03;;;;;;;8.47;3.57;;;14.30;99.90;;;;;;4972605;28;20629;-73
2021/12/24 12:57:36;;;;;;;6.57;3.10;;;14.30;99.90;;;;;;4972628;28;20179;-73
2021/12/24 13:00:18;;;;;;;8.43;4.20;;;14.30;99.90;;;;;;4974248;28;20677;-73
2021/12/24 13:05:32;;;;;;;8.57;3.73;;;14.20;99.90;;;;;;4974103;28;20568;-73
2021/12/24 13:08:22;;;;;;;9.50;3.90;;;14.20;99.90;;;;;;4973518;28;20578;-73
2021/12/24 13:11:06;;;;;;;10.23;3.50;;;14.20;99.90;;;;;;4972492;28;20611;-73
2021/12/24 13:14:01;;;;;;;5.43;3.40;;;14.10;99.90;;;;;;4973369;28;20621;-73
2021/12/24 13:16:33;;;;;;;6.43;3.03;;;14.10;99.90;;;;;;4972646;28;20555;-73
2021/12/24 13:19:57;;;;;;;4.45;2.70;;;14.20;99.90;;;;;;4972270;28;20963;-73
2021/12/24 13:24:37;;;;;;;6.23;4.10;;;14.20;99.90;;;;;;4972204;28;20566;-72
2021/12/24 13:27:03;;;;;;;8.60;4.17;;;14.10;99.90;;;;;;4973486;28;20563;-72
2021/12/24 13:29:29;;;;;;;8.40;4.70;;;14.10;99.90;;;;;;4973179;28;20253;-72
2021/12/24 13:31:56;;;;;;;12.57;5.30;;;14.10;99.90;;;;;;4973765;28;20647;-72
2021/12/24 13:34:24;;;;;;;7.63;3.80;;;14.00;99.90;;;;;;4972847;28;20833;-73
2021/12/24 13:36:51;;;;;;;9.37;4.90;;;14.00;99.90;;;;;;4973086;28;20634;-73
2021/12/24 13:39:19;;;;;;;11.30;4.00;;;14.00;99.90;;;;;;4972120;28;20567;-73
2021/12/24 13:41:47;;;;;;;9.17;4.50;;;13.90;99.90;;;;;;4972859;28;20206;-72
2021/12/24 13:44:21;;;;;;;7.17;4.30;;;13.90;99.90;;;;;;4971690;28;20571;-73
2021/12/24 13:46:59;;;;;;;6.87;3.87;;;13.80;99.90;;;;;;4971403;28;20563;-72
2021/12/24 13:49:37;;;;;;;7.85;4.82;;;13.80;99.90;;;;;;4973301;28;20933;-73
2021/12/24 13:54:47;;;;;;;10.40;4.90;;;13.70;99.90;;;;;;4972902;28;20176;-73
2021/12/24 13:57:17;;;;;;;11.10;4.90;;;13.60;99.90;;;;;;4955392;28;20965;-73
2021/12/24 13:59:50;;;;;;;9.20;4.18;;;13.60;99.90;;;;;;4971794;28;20514;-73
2021/12/24 14:02:16;;;;;;;7.13;3.50;;;13.60;99.90;;;;;;4971582;28;20251;-73
2021/12/24 14:04:42;;;;;;;10.50;4.20;;;13.50;99.90;;;;;;4972206;28;20570;-72
2021/12/24 14:07:09;;;;;;;9.30;4.17;;;13.50;99.90;;;;;;4954850;28;20678;-72
2021/12/24 14:09:34;;;;;;;9.88;4.13;;;13.50;99.90;;;;;;4955905;28;20575;-73
2021/12/24 14:12:03;;;;;;;10.40;4.20;;;13.40;99.90;;;;;;4955440;28;20197;-72
2021/12/24 14:14:50;;;;;;;9.75;5.65;;;13.40;99.90;;;;;;4971764;28;20572;-72
2021/12/24 14:22:23;;;;;;;10.53;6.60;;;13.30;99.90;;;;;;4971163;28;20215;-72
2021/12/24 14:25:13;;;;;;;13.85;7.90;;;13.30;99.90;;;;;;4970606;28;20299;-72
2021/12/24 14:27:44;;;;;;;17.63;10.30;;;13.30;99.90;;;;;;4969812;28;20726;-72
2021/12/24 14:30:12;;;;;;;17.75;12.23;;;13.30;99.90;;;;;;4986881;28;20172;-72
2021/12/24 14:32:44;;;;;;;14.95;10.68;;;13.20;99.90;;;;;;4970284;28;20182;-72
2021/12/24 14:35:14;;;;;;;21.48;12.57;;;13.20;99.90;;;;;;4986789;28;20187;-73
2021/12/24 14:37:44;;;;;;;22.75;12.65;;;13.20;99.90;;;;;;4954895;28;20540;-73
2021/12/24 14:40:13;;;;;;;15.55;8.10;;;13.20;99.90;;;;;;4970871;28;20184;-72
2021/12/24 14:42:47;;;;;;;15.18;7.05;;;13.20;99.90;;;;;;4970882;28;20191;-73
2021/12/24 14:45:29;;;;;;;9.30;5.65;;;13.20;99.90;;;;;;4955182;28;20572;-73
2021/12/24 14:48:04;;;;;;;8.02;4.05;;;13.20;99.90;;;;;;4972447;28;20167;-72
2021/12/24 14:50:32;;;;;;;7.20;4.40;;;13.20;99.90;;;;;;4953105;28;20672;-72
2021/12/24 14:53:15;;;;;;;8.15;4.55;;;13.20;99.90;;;;;;4952257;29;20172;-73